createdAt,value
2023-04-23T00:00:32.991Z,6.15
2023-04-23T00:03:04.850Z,4.15
2023-04-23T00:05:33.352Z,4.53
2023-04-23T00:08:02.034Z,3.63
2023-04-23T00:10:28.887Z,3.47
2023-04-23T00:12:57.999Z,2.25
2023-04-23T00:15:26.174Z,9.48
2023-04-23T00:17:52.917Z,8.18
2023-04-23T00:20:19.714Z,2.47
2023-04-23T00:22:46.404Z,5.88
2023-04-23T00:25:13.112Z,1.08
2023-04-23T00:27:39.855Z,1.73
2023-04-23T00:30:07.206Z,2.38
2023-04-23T00:32:34.156Z,4.40
2023-04-23T00:35:01.133Z,5.63
2023-04-23T00:37:27.889Z,5.95
2023-04-23T00:39:54.618Z,3.50
2023-04-23T00:42:21.621Z,0.93
2023-04-23T00:44:50.633Z,4.13
2023-04-23T00:47:18.047Z,6.03
2023-04-23T00:49:45.557Z,2.10
2023-04-23T00:52:12.288Z,9.43
2023-04-23T00:54:39.193Z,4.28
2023-04-23T00:57:07.998Z,4.53
2023-04-23T00:59:36.220Z,4.40
2023-04-23T01:02:02.942Z,4.13
2023-04-23T01:04:31.880Z,7.65
2023-04-23T01:06:59.755Z,2.53
2023-04-23T01:09:27.745Z,2.72
2023-04-23T01:11:54.862Z,12.63
2023-04-23T01:14:21.618Z,2.25
2023-04-23T01:16:49.208Z,4.00
2023-04-23T01:19:16.197Z,6.43
2023-04-23T01:21:43.290Z,2.22
2023-04-23T01:24:11.584Z,6.03
2023-04-23T01:26:39.349Z,4.55
2023-04-23T01:29:06.801Z,2.60
2023-04-23T01:31:33.806Z,2.35
2023-04-23T01:34:01.788Z,4.68
2023-04-23T01:36:29.115Z,1.70
2023-04-23T01:38:55.802Z,6.97
2023-04-23T01:41:22.790Z,9.60
2023-04-23T01:43:49.525Z,2.83
2023-04-23T01:46:16.439Z,5.85
2023-04-23T01:48:43.504Z,3.80
2023-04-23T01:51:10.166Z,5.03
2023-04-23T01:53:36.840Z,1.33
2023-04-23T01:56:05.171Z,6.85
2023-04-23T01:58:31.879Z,4.03
2023-04-23T02:00:58.604Z,6.82
2023-04-23T02:03:25.517Z,2.50
2023-04-23T02:05:54.844Z,5.75
2023-04-23T02:08:22.113Z,2.60
2023-04-23T02:10:49.012Z,7.65
2023-04-23T02:13:15.761Z,3.25
2023-04-23T02:15:43.222Z,4.45
2023-04-23T02:18:10.903Z,4.50
2023-04-23T02:20:41.330Z,4.13
2023-04-23T02:23:08.862Z,2.60
2023-04-23T02:25:38.530Z,3.80
2023-04-23T02:28:08.380Z,2.72
2023-04-23T02:30:35.859Z,6.28
2023-04-23T02:33:03.720Z,6.28
2023-04-23T02:35:31.404Z,6.20
2023-04-23T02:37:58.128Z,3.85
2023-04-23T02:40:24.822Z,3.10
2023-04-23T02:42:51.571Z,6.90
2023-04-23T02:45:18.239Z,8.02
2023-04-23T02:47:45.005Z,5.50
2023-04-23T02:50:11.745Z,9.57
2023-04-23T02:52:38.666Z,5.07
2023-04-23T02:55:07.106Z,2.97
2023-04-23T02:57:34.499Z,5.55
2023-04-23T03:00:01.212Z,4.05
2023-04-23T03:02:28.055Z,9.07
2023-04-23T03:04:55.234Z,4.68
2023-04-23T03:07:21.911Z,5.35
2023-04-23T03:09:48.573Z,8.50
2023-04-23T03:12:16.000Z,7.43
2023-04-23T03:14:42.987Z,4.22
2023-04-23T03:17:10.114Z,5.38
2023-04-23T03:19:37.048Z,3.92
2023-04-23T03:22:05.715Z,2.92
2023-04-23T03:24:33.404Z,11.80
2023-04-23T03:27:00.201Z,4.63
2023-04-23T03:29:28.255Z,6.68
2023-04-23T03:31:54.966Z,5.35
2023-04-23T03:34:21.630Z,4.18
2023-04-23T03:36:48.783Z,3.22
2023-04-23T03:39:15.840Z,9.10
2023-04-23T03:41:42.547Z,3.92
2023-04-23T03:44:09.301Z,2.05
2023-04-23T03:46:36.249Z,7.03
2023-04-23T03:49:02.986Z,6.93
2023-04-23T03:51:29.668Z,6.65
2023-04-23T03:53:56.333Z,5.32
2023-04-23T03:56:24.596Z,9.32
2023-04-23T03:58:53.116Z,7.63
2023-04-23T04:01:19.910Z,7.93
2023-04-23T04:03:46.896Z,7.05
2023-04-23T04:06:13.859Z,4.88
2023-04-23T04:08:40.739Z,5.85
2023-04-23T04:11:08.223Z,8.88
2023-04-23T04:13:34.956Z,3.15
2023-04-23T04:16:01.674Z,11.27
2023-04-23T04:18:28.455Z,7.15
2023-04-23T04:20:55.774Z,10.15
2023-04-23T04:23:22.497Z,4.03
2023-04-23T04:25:50.973Z,9.20
2023-04-23T04:28:17.875Z,8.45
2023-04-23T04:30:44.779Z,11.32
2023-04-23T04:33:11.506Z,4.93
2023-04-23T04:35:38.204Z,6.00
2023-04-23T04:38:04.852Z,3.85
2023-04-23T04:40:31.550Z,6.80
2023-04-23T04:43:00.113Z,5.35
2023-04-23T04:45:26.862Z,4.68
2023-04-23T04:47:53.705Z,6.00
2023-04-23T04:50:20.462Z,9.73
2023-04-23T04:52:47.152Z,4.88
2023-04-23T04:55:13.855Z,6.85
2023-04-23T04:57:40.676Z,8.48
2023-04-23T05:00:29.438Z,4.10
2023-04-23T05:02:57.928Z,6.90
2023-04-23T05:05:25.774Z,14.10
2023-04-23T05:07:54.308Z,7.07
2023-04-23T05:10:21.406Z,12.35
2023-04-23T05:12:48.159Z,7.28
2023-04-23T05:15:14.983Z,10.73
2023-04-23T05:17:42.210Z,7.45
2023-04-23T05:20:13.205Z,6.30
2023-04-23T05:22:41.817Z,4.88
2023-04-23T05:25:11.615Z,10.38
2023-04-23T05:27:38.765Z,6.18
2023-04-23T05:30:08.458Z,7.72
2023-04-23T05:32:36.266Z,5.70
2023-04-23T05:35:03.887Z,8.10
2023-04-23T05:37:30.979Z,7.85
2023-04-23T05:39:58.329Z,6.38
2023-04-23T05:42:25.137Z,7.72
2023-04-23T05:44:52.092Z,7.85
2023-04-23T05:47:18.832Z,7.40
2023-04-23T05:49:45.647Z,6.40
2023-04-23T05:52:12.427Z,7.93
2023-04-23T05:54:39.542Z,5.07
2023-04-23T05:57:06.393Z,4.03
2023-04-23T05:59:34.197Z,6.03
2023-04-23T06:02:01.113Z,6.00
2023-04-23T06:04:28.013Z,11.25
2023-04-23T06:06:54.845Z,4.95
2023-04-23T06:09:21.892Z,5.90
2023-04-23T06:11:50.662Z,3.33
2023-04-23T06:14:17.410Z,3.47
2023-04-23T06:16:44.229Z,4.80
2023-04-23T06:19:11.476Z,5.05
2023-04-23T06:21:38.249Z,9.95
2023-04-23T06:24:07.336Z,3.38
2023-04-23T06:26:34.218Z,6.30
2023-04-23T06:29:00.948Z,5.05
2023-04-23T06:31:28.376Z,5.35
2023-04-23T06:33:55.443Z,4.90
2023-04-23T06:36:22.100Z,2.58
2023-04-23T06:38:48.735Z,9.93
2023-04-23T06:41:15.825Z,4.93
2023-04-23T06:43:42.985Z,5.95
2023-04-23T06:46:09.703Z,16.55
2023-04-23T06:48:37.611Z,10.65
2023-04-23T06:51:05.984Z,2.33
2023-04-23T06:53:33.083Z,2.72
2023-04-23T06:55:59.921Z,3.58
2023-04-23T06:58:31.323Z,6.47
2023-04-23T07:01:04.115Z,7.35
2023-04-23T07:03:31.724Z,3.33
2023-04-23T07:05:58.561Z,3.45
2023-04-23T07:08:25.311Z,4.00
2023-04-23T07:10:53.221Z,3.78
2023-04-23T07:13:19.994Z,9.88
2023-04-23T07:15:46.723Z,4.90
2023-04-23T07:18:13.690Z,6.20
2023-04-23T07:20:40.455Z,7.72
2023-04-23T07:23:07.157Z,2.63
2023-04-23T07:25:33.921Z,2.78
2023-04-23T07:28:00.639Z,2.65
2023-04-23T07:30:28.090Z,6.30
2023-04-23T07:32:55.704Z,6.50
2023-04-23T07:35:22.553Z,3.63
2023-04-23T07:37:53.691Z,3.88
2023-04-23T07:40:23.834Z,3.28
2023-04-23T07:42:51.649Z,5.00
2023-04-23T07:45:19.507Z,3.15
2023-04-23T07:47:49.252Z,4.85
2023-04-23T07:50:16.142Z,3.70
2023-04-23T07:52:42.929Z,7.47
2023-04-23T07:55:09.959Z,4.30
2023-04-23T07:57:36.825Z,6.65
2023-04-23T08:00:05.082Z,3.75
2023-04-23T08:02:31.964Z,3.92
2023-04-23T08:04:58.824Z,7.60
2023-04-23T08:07:26.073Z,8.93
2023-04-23T08:09:52.742Z,1.75
2023-04-23T08:12:19.941Z,3.55
2023-04-23T08:14:47.394Z,3.17
2023-04-23T08:17:14.095Z,2.42
2023-04-23T08:19:41.153Z,6.53
2023-04-23T08:22:08.070Z,3.90
2023-04-23T08:24:36.961Z,7.18
2023-04-23T08:27:03.801Z,5.78
2023-04-23T08:29:30.592Z,3.53
2023-04-23T08:31:57.336Z,3.50
2023-04-23T08:34:26.862Z,5.10
2023-04-23T08:36:54.182Z,3.05
2023-04-23T08:39:21.032Z,2.80
2023-04-23T08:41:58.164Z,3.67
2023-04-23T08:44:26.162Z,2.63
2023-04-23T08:46:54.688Z,5.82
2023-04-23T08:49:21.622Z,10.07
2023-04-23T08:51:59.081Z,5.05
2023-04-23T08:54:27.011Z,5.63
2023-04-23T08:56:58.263Z,7.20
2023-04-23T08:59:27.195Z,7.45
2023-04-23T09:01:54.354Z,3.67
2023-04-23T09:04:23.332Z,4.55
2023-04-23T09:06:50.126Z,6.28
2023-04-23T09:09:23.507Z,2.60
2023-04-23T09:11:51.756Z,4.65
2023-04-23T09:14:22.608Z,7.20
2023-04-23T09:16:50.295Z,4.90
2023-04-23T09:19:18.425Z,3.40
2023-04-23T09:21:46.527Z,8.48
2023-04-23T09:24:14.787Z,5.78
2023-04-23T09:26:46.870Z,4.25
2023-04-23T09:29:18.574Z,4.47
2023-04-23T09:31:51.634Z,3.77
2023-04-23T09:34:19.837Z,2.88
2023-04-23T09:36:50.337Z,6.38
2023-04-23T09:39:21.705Z,2.30
2023-04-23T09:41:48.584Z,2.58
2023-04-23T09:44:19.840Z,4.43
2023-04-23T09:46:46.600Z,4.45
2023-04-23T09:49:14.824Z,3.88
2023-04-23T09:51:43.992Z,4.72
2023-04-23T09:54:25.104Z,6.28
2023-04-23T09:57:02.762Z,8.75
2023-04-23T10:02:05.885Z,3.28
2023-04-23T10:04:33.958Z,4.65
2023-04-23T10:09:34.780Z,3.58
2023-04-23T10:12:03.060Z,3.22
2023-04-23T10:14:30.426Z,3.83
2023-04-23T10:17:01.991Z,3.38
2023-04-23T10:19:29.577Z,2.05
2023-04-23T10:22:18.635Z,5.00
2023-04-23T10:24:51.489Z,4.82
2023-04-23T10:29:49.625Z,1.77
2023-04-23T10:32:18.243Z,0.90
2023-04-23T10:34:45.611Z,1.27
2023-04-23T10:37:13.444Z,2.45
2023-04-23T10:39:44.776Z,9.80
2023-04-23T10:42:13.537Z,2.67
2023-04-23T10:47:16.868Z,1.88
2023-04-23T10:49:44.716Z,3.75
2023-04-23T10:52:21.092Z,1.90
2023-04-23T10:54:56.867Z,2.85
2023-04-23T10:57:23.628Z,2.20
2023-04-23T10:59:56.361Z,2.17
2023-04-23T11:02:24.577Z,6.18
2023-04-23T11:04:58.834Z,1.20
2023-04-23T11:07:32.079Z,2.05
2023-04-23T11:10:12.856Z,3.60
2023-04-23T11:12:40.668Z,3.50
2023-04-23T11:15:15.417Z,0.95
2023-04-23T11:17:47.241Z,6.03
2023-04-23T11:20:18.753Z,1.15
2023-04-23T11:22:47.597Z,1.88
2023-04-23T11:25:22.753Z,2.08
2023-04-23T11:27:51.182Z,1.63
2023-04-23T11:30:29.349Z,4.30
2023-04-23T11:32:57.557Z,0.98
2023-04-23T11:35:29.468Z,1.73
2023-04-23T11:37:57.058Z,1.85
2023-04-23T11:40:24.330Z,1.45
2023-04-23T11:42:54.468Z,2.38
2023-04-23T11:45:23.559Z,2.63
2023-04-23T11:47:55.838Z,1.80
2023-04-23T11:50:25.158Z,3.92
2023-04-23T11:52:52.888Z,1.55
2023-04-23T11:55:20.722Z,1.75
2023-04-23T11:57:49.484Z,1.23
2023-04-23T12:00:24.471Z,3.50
2023-04-23T12:02:56.766Z,1.33
2023-04-23T12:05:40.412Z,1.48
2023-04-23T12:08:12.607Z,4.40
2023-04-23T12:10:46.713Z,1.15
2023-04-23T12:13:15.494Z,0.93
2023-04-23T12:15:46.562Z,3.45
2023-04-23T12:18:13.390Z,1.02
2023-04-23T12:20:40.467Z,1.98
2023-04-23T12:23:08.149Z,0.57
2023-04-23T12:25:35.967Z,1.27
2023-04-23T12:28:04.923Z,0.75
2023-04-23T12:30:42.088Z,1.45
2023-04-23T12:33:11.349Z,1.52
2023-04-23T12:35:42.558Z,2.10
2023-04-23T12:38:30.793Z,1.75
2023-04-23T12:40:59.328Z,2.10
2023-04-23T12:43:27.125Z,3.85
2023-04-23T12:45:56.872Z,1.67
2023-04-23T12:48:23.595Z,1.67
2023-04-23T12:50:50.638Z,1.42
2023-04-23T12:53:18.877Z,0.88
2023-04-23T12:55:45.938Z,2.60
2023-04-23T12:58:12.740Z,2.30
2023-04-23T13:00:39.539Z,2.70
2023-04-23T13:03:06.458Z,1.98
2023-04-23T13:05:33.232Z,1.13
2023-04-23T13:07:59.894Z,1.17
2023-04-23T13:10:26.667Z,1.80
2023-04-23T13:12:53.303Z,1.80
2023-04-23T13:15:20.356Z,0.98
2023-04-23T13:17:47.288Z,1.58
2023-04-23T13:20:14.040Z,5.07
2023-04-23T13:22:41.099Z,1.08
2023-04-23T13:25:08.692Z,1.33
2023-04-23T13:27:35.576Z,0.60
2023-04-23T13:30:02.375Z,1.30
2023-04-23T13:32:32.253Z,0.60
2023-04-23T13:35:01.854Z,0.90
2023-04-23T13:37:31.386Z,0.93
2023-04-23T13:39:58.125Z,1.00
2023-04-23T13:42:24.873Z,2.22
2023-04-23T13:44:51.705Z,0.90
2023-04-23T13:47:18.486Z,0.75
2023-04-23T13:49:45.209Z,0.98
2023-04-23T13:52:11.944Z,2.13
2023-04-23T13:54:39.792Z,1.73
2023-04-23T13:57:06.892Z,1.52
2023-04-23T13:59:33.731Z,2.00
2023-04-23T14:02:00.896Z,0.85
2023-04-23T14:04:27.814Z,0.93
2023-04-23T14:06:54.665Z,1.27
2023-04-23T14:09:22.426Z,3.72
2023-04-23T14:11:49.505Z,1.30
2023-04-23T14:14:16.732Z,3.28
2023-04-23T14:16:43.468Z,1.85
2023-04-23T14:19:10.200Z,0.82
2023-04-23T14:21:37.477Z,1.25
2023-04-23T14:24:22.363Z,2.20
2023-04-23T14:26:50.207Z,0.90
2023-04-23T14:29:30.616Z,1.27
2023-04-23T14:31:57.533Z,1.65
2023-04-23T14:34:24.328Z,2.55
2023-04-23T14:36:53.136Z,2.20
2023-04-23T14:39:22.098Z,1.42
2023-04-23T14:41:48.949Z,1.67
2023-04-23T14:44:15.612Z,2.22
2023-04-23T14:46:42.389Z,2.85
2023-04-23T14:49:09.073Z,2.42
2023-04-23T14:51:37.424Z,3.83
2023-04-23T14:54:07.298Z,2.75
2023-04-23T14:56:33.981Z,1.42
2023-04-23T14:59:01.913Z,1.98
2023-04-23T15:01:30.939Z,2.92
2023-04-23T15:03:57.949Z,2.83
2023-04-23T15:06:24.724Z,3.72
2023-04-23T15:08:51.403Z,3.72
2023-04-23T15:11:18.164Z,2.40
2023-04-23T15:14:17.828Z,2.45
2023-04-23T15:16:48.897Z,4.15
2023-04-23T15:19:18.052Z,1.90
2023-04-23T15:21:46.122Z,4.10
2023-04-23T15:24:12.858Z,2.88
2023-04-23T15:26:40.002Z,4.50
2023-04-23T15:29:10.273Z,3.30
2023-04-23T15:31:40.095Z,3.88
2023-04-23T15:34:09.487Z,3.17
2023-04-23T15:36:37.566Z,5.97
2023-04-23T15:39:04.897Z,4.15
2023-04-23T15:41:31.641Z,4.40
2023-04-23T15:43:58.556Z,3.33
2023-04-23T15:46:25.253Z,4.25
2023-04-23T15:48:52.015Z,5.28
2023-04-23T15:51:18.820Z,3.10
2023-04-23T15:53:45.586Z,4.43
2023-04-23T15:56:12.349Z,4.93
2023-04-23T15:58:39.061Z,3.25
2023-04-23T16:01:07.247Z,2.90
2023-04-23T16:03:34.617Z,3.78
2023-04-23T16:06:01.771Z,2.90
2023-04-23T16:08:28.443Z,4.97
2023-04-23T16:10:56.999Z,3.30
2023-04-23T16:13:24.936Z,1.95
2023-04-23T16:15:51.725Z,3.92
2023-04-23T16:18:18.544Z,3.55
2023-04-23T16:20:45.451Z,3.72
2023-04-23T16:23:12.164Z,4.20
2023-04-23T16:25:39.002Z,5.70
2023-04-23T16:28:06.029Z,4.22
2023-04-23T16:30:32.719Z,4.22
2023-04-23T16:32:59.530Z,3.30
2023-04-23T16:35:26.460Z,2.53
2023-04-23T16:37:54.547Z,3.22
2023-04-23T16:40:21.473Z,3.55
2023-04-23T16:42:48.830Z,2.40
2023-04-23T16:45:15.911Z,2.80
2023-04-23T16:47:44.292Z,2.45
2023-04-23T16:50:11.426Z,4.20
2023-04-23T16:52:38.303Z,3.35
2023-04-23T16:55:05.701Z,2.03
2023-04-23T16:57:33.202Z,1.50
2023-04-23T16:59:59.957Z,3.15
2023-04-23T17:02:26.859Z,3.25
2023-04-23T17:04:53.879Z,3.63
2023-04-23T17:07:21.262Z,1.60
2023-04-23T17:09:47.951Z,1.48
2023-04-23T17:12:14.721Z,2.08
2023-04-23T17:14:41.682Z,2.05
2023-04-23T17:17:08.626Z,2.28
2023-04-23T17:19:36.418Z,3.72
2023-04-23T17:22:03.474Z,2.55
2023-04-23T17:24:30.196Z,4.40
2023-04-23T17:26:57.735Z,6.22
2023-04-23T17:29:24.504Z,3.10
2023-04-23T17:31:51.467Z,3.63
2023-04-23T17:34:18.196Z,2.38
2023-04-23T17:36:44.860Z,1.70
2023-04-23T17:39:11.550Z,1.45
2023-04-23T17:41:38.486Z,3.40
2023-04-23T17:44:05.212Z,1.75
2023-04-23T17:46:31.871Z,1.67
2023-04-23T17:48:58.535Z,2.45
2023-04-23T17:51:25.386Z,1.27
2023-04-23T17:53:52.244Z,1.38
2023-04-23T17:56:18.960Z,1.77
2023-04-23T17:58:45.878Z,2.53
2023-04-23T18:01:12.660Z,2.13
2023-04-23T18:03:39.696Z,4.70
2023-04-23T18:06:08.598Z,3.20
2023-04-23T18:08:36.201Z,2.83
2023-04-23T18:11:04.395Z,4.57
2023-04-23T18:13:31.248Z,4.75
2023-04-23T18:15:57.914Z,4.53
2023-04-23T18:18:24.725Z,3.72
2023-04-23T18:20:51.904Z,3.53
2023-04-23T18:23:20.683Z,3.58
2023-04-23T18:25:47.775Z,3.47
2023-04-23T18:28:14.474Z,3.17
2023-04-23T18:30:41.229Z,4.03
2023-04-23T18:33:25.805Z,6.30
2023-04-23T18:35:56.116Z,2.40
2023-04-23T18:38:32.241Z,4.00
2023-04-23T18:41:04.418Z,2.20
2023-04-23T18:43:31.869Z,3.17
2023-04-23T18:45:58.839Z,1.88
2023-04-23T18:48:34.786Z,2.33
2023-04-23T18:51:14.369Z,3.30
2023-04-23T18:53:41.234Z,3.20
2023-04-23T18:56:08.194Z,3.92
2023-04-23T18:58:34.894Z,4.60
2023-04-23T19:01:01.689Z,5.95
2023-04-23T19:03:29.573Z,4.45
2023-04-23T19:05:56.506Z,3.72
2023-04-23T19:08:28.314Z,2.45
2023-04-23T19:10:56.255Z,8.07
2023-04-23T19:13:23.150Z,3.65
2023-04-23T19:15:50.489Z,5.50
2023-04-23T19:18:17.933Z,2.58
2023-04-23T19:20:44.864Z,2.88
2023-04-23T19:23:11.961Z,2.95
2023-04-23T19:25:38.771Z,3.78
2023-04-23T19:28:05.631Z,5.03
2023-04-23T19:30:32.522Z,4.45
2023-04-23T19:32:59.320Z,3.50
2023-04-23T19:35:26.472Z,1.95
2023-04-23T19:37:53.218Z,3.00
2023-04-23T19:40:19.994Z,3.35
2023-04-23T19:42:46.691Z,1.92
2023-04-23T19:45:15.438Z,2.15
2023-04-23T19:47:42.248Z,2.50
2023-04-23T19:50:09.943Z,2.28
2023-04-23T19:52:37.207Z,2.90
2023-04-23T19:55:04.309Z,3.40
2023-04-23T19:57:31.117Z,1.52
2023-04-23T19:59:57.868Z,2.35
2023-04-23T20:02:24.661Z,3.03
2023-04-23T20:04:51.376Z,2.83
2023-04-23T20:07:18.147Z,2.28
2023-04-23T20:09:45.312Z,5.32
2023-04-23T20:12:13.691Z,3.67
2023-04-23T20:14:40.452Z,2.40
2023-04-23T20:17:07.873Z,3.60
2023-04-23T20:19:34.653Z,3.28
2023-04-23T20:22:02.462Z,3.38
2023-04-23T20:24:29.220Z,4.95
2023-04-23T20:26:56.631Z,4.78
2023-04-23T20:29:23.362Z,4.88
2023-04-23T20:31:50.187Z,4.20
2023-04-23T20:34:17.441Z,3.58
2023-04-23T20:36:47.070Z,2.90
2023-04-23T20:39:14.497Z,5.85
2023-04-23T20:41:41.501Z,5.32
2023-04-23T20:44:09.053Z,4.47
2023-04-23T20:46:37.068Z,3.45
2023-04-23T20:49:04.295Z,6.38
2023-04-23T20:51:34.984Z,4.10
2023-04-23T20:54:02.531Z,4.80
2023-04-23T20:56:29.497Z,4.95
2023-04-23T20:58:57.659Z,5.72
2023-04-23T21:01:25.345Z,5.93
2023-04-23T21:03:53.495Z,8.70
2023-04-23T21:06:21.857Z,5.28
2023-04-23T21:08:48.839Z,5.88
2023-04-23T21:11:18.111Z,6.82
2023-04-23T21:13:46.256Z,6.25
2023-04-23T21:16:13.498Z,7.20
2023-04-23T21:18:41.102Z,6.93
2023-04-23T21:21:08.127Z,7.53
2023-04-23T21:23:35.886Z,9.43
2023-04-23T21:26:03.454Z,5.40
2023-04-23T21:28:31.000Z,7.15
2023-04-23T21:31:06.704Z,6.47
2023-04-23T21:33:33.506Z,9.93
2023-04-23T21:36:00.215Z,11.15
2023-04-23T21:38:27.040Z,8.25
2023-04-23T21:40:53.909Z,10.10
2023-04-23T21:43:20.697Z,9.63
2023-04-23T21:45:47.400Z,9.85
2023-04-23T21:48:14.973Z,9.65
2023-04-23T21:50:41.894Z,10.70
2023-04-23T21:53:08.735Z,11.05
2023-04-23T21:55:35.505Z,9.52
2023-04-23T22:00:32.070Z,11.13
2023-04-23T22:02:58.929Z,11.80
2023-04-23T22:05:28.367Z,8.95
2023-04-23T22:07:55.727Z,15.30
2023-04-23T22:10:22.780Z,12.60
2023-04-23T22:12:50.197Z,12.10
2023-04-23T22:15:18.836Z,12.20
2023-04-23T22:17:50.626Z,10.70
2023-04-23T22:20:19.106Z,11.38
2023-04-23T22:22:46.433Z,13.40
2023-04-23T22:25:13.651Z,12.32
2023-04-23T22:27:41.715Z,15.18
2023-04-23T22:30:10.597Z,12.43
2023-04-23T22:32:38.184Z,10.57
2023-04-23T22:35:06.555Z,9.25
2023-04-23T22:37:34.218Z,10.65
2023-04-23T22:40:01.643Z,11.52
2023-04-23T22:42:28.352Z,11.60
2023-04-23T22:44:55.293Z,12.90
2023-04-23T22:47:22.357Z,12.10
2023-04-23T22:49:49.458Z,18.17
2023-04-23T22:52:16.826Z,14.45
2023-04-23T22:54:43.814Z,15.20
2023-04-23T22:57:11.987Z,15.48
2023-04-23T22:59:42.101Z,13.75
2023-04-23T23:02:09.118Z,15.65
2023-04-23T23:04:38.487Z,14.90
2023-04-23T23:07:09.092Z,16.00
2023-04-23T23:09:35.948Z,15.07
2023-04-23T23:12:04.653Z,17.52
2023-04-23T23:14:33.204Z,18.60
2023-04-23T23:17:00.133Z,14.63
2023-04-23T23:19:27.918Z,16.55
2023-04-23T23:21:54.702Z,15.85
2023-04-23T23:24:22.898Z,19.42
2023-04-23T23:26:50.399Z,18.83
2023-04-23T23:29:17.359Z,19.40
2023-04-23T23:31:44.253Z,22.63
2023-04-23T23:34:11.738Z,17.60
2023-04-23T23:36:38.570Z,18.02
2023-04-23T23:39:06.581Z,23.60
2023-04-23T23:41:33.694Z,18.77
2023-04-23T23:44:00.566Z,14.88
2023-04-23T23:46:27.564Z,18.58
2023-04-23T23:48:54.401Z,24.40
2023-04-23T23:51:21.260Z,19.15
2023-04-23T23:53:47.962Z,18.38
2023-04-23T23:56:14.743Z,19.17
2023-04-23T23:58:41.468Z,23.88
